sensor_id;sensor_type;location;lat;lon;timestamp;pressure;altitude;pressure_sealevel;temperature;humidity
79671;BME280;69137;50.878;8.050;2023-05-14T00:00:59;98575.84;;;7.95;80.29
79671;BME280;69137;50.878;8.050;2023-05-14T00:03:24;98574.69;;;7.91;80.81
79671;BME280;69137;50.878;8.050;2023-05-14T00:05:50;98578.63;;;7.83;81.26
79671;BME280;69137;50.878;8.050;2023-05-14T00:08:16;98580.63;;;7.87;80.88
79671;BME280;69137;50.878;8.050;2023-05-14T00:10:41;98564.47;;;7.98;80.00
79671;BME280;69137;50.878;8.050;2023-05-14T00:13:07;98573.72;;;7.97;78.97
79671;BME280;69137;50.878;8.050;2023-05-14T00:15:32;98568.38;;;8.02;80.38
79671;BME280;69137;50.878;8.050;2023-05-14T00:17:57;98566.69;;;8.01;80.31
79671;BME280;69137;50.878;8.050;2023-05-14T00:20:23;98570.41;;;7.95;80.60
79671;BME280;69137;50.878;8.050;2023-05-14T00:22:48;98572.06;;;7.96;80.00
79671;BME280;69137;50.878;8.050;2023-05-14T00:25:14;98569.00;;;7.92;80.14
79671;BME280;69137;50.878;8.050;2023-05-14T00:27:39;98569.72;;;7.87;80.16
79671;BME280;69137;50.878;8.050;2023-05-14T00:30:05;98561.56;;;7.87;79.82
79671;BME280;69137;50.878;8.050;2023-05-14T00:32:31;98561.16;;;7.79;80.74
79671;BME280;69137;50.878;8.050;2023-05-14T00:34:57;98561.56;;;7.71;80.35
79671;BME280;69137;50.878;8.050;2023-05-14T00:37:22;98553.44;;;7.59;80.80
79671;BME280;69137;50.878;8.050;2023-05-14T00:39:48;98540.81;;;7.53;81.29
79671;BME280;69137;50.878;8.050;2023-05-14T00:42:13;98542.56;;;7.59;79.86
79671;BME280;69137;50.878;8.050;2023-05-14T00:44:38;98546.34;;;7.58;80.18
79671;BME280;69137;50.878;8.050;2023-05-14T00:47:04;98543.13;;;7.61;80.17
79671;BME280;69137;50.878;8.050;2023-05-14T00:49:30;98540.16;;;7.62;79.74
79671;BME280;69137;50.878;8.050;2023-05-14T00:51:56;98535.47;;;7.58;80.42
79671;BME280;69137;50.878;8.050;2023-05-14T00:54:23;98529.19;;;7.57;80.38
79671;BME280;69137;50.878;8.050;2023-05-14T00:56:49;98531.09;;;7.57;79.86
79671;BME280;69137;50.878;8.050;2023-05-14T00:59:15;98523.91;;;7.51;79.40
79671;BME280;69137;50.878;8.050;2023-05-14T01:01:41;98519.53;;;7.50;79.54
79671;BME280;69137;50.878;8.050;2023-05-14T01:04:08;98527.13;;;7.48;79.42
79671;BME280;69137;50.878;8.050;2023-05-14T01:06:47;98527.41;;;7.34;79.93
79671;BME280;69137;50.878;8.050;2023-05-14T01:09:39;98523.13;;;7.38;79.68
79671;BME280;69137;50.878;8.050;2023-05-14T01:12:41;98526.00;;;7.32;79.82
79671;BME280;69137;50.878;8.050;2023-05-14T01:15:25;98522.34;;;7.26;80.22
79671;BME280;69137;50.878;8.050;2023-05-14T01:17:58;98527.94;;;7.08;81.64
79671;BME280;69137;50.878;8.050;2023-05-14T01:20:26;98516.25;;;7.07;81.39
79671;BME280;69137;50.878;8.050;2023-05-14T01:22:51;98522.97;;;7.16;80.49
79671;BME280;69137;50.878;8.050;2023-05-14T01:25:19;98522.38;;;7.14;81.16
79671;BME280;69137;50.878;8.050;2023-05-14T01:30:20;98518.38;;;7.05;81.36
79671;BME280;69137;50.878;8.050;2023-05-14T01:32:50;98517.06;;;7.08;80.95
79671;BME280;69137;50.878;8.050;2023-05-14T01:35:16;98522.63;;;7.13;80.32
79671;BME280;69137;50.878;8.050;2023-05-14T01:37:43;98520.50;;;7.15;80.63
79671;BME280;69137;50.878;8.050;2023-05-14T01:40:09;98517.66;;;7.10;81.15
79671;BME280;69137;50.878;8.050;2023-05-14T01:42:36;98516.88;;;6.97;80.93
79671;BME280;69137;50.878;8.050;2023-05-14T01:45:02;98515.00;;;6.86;81.26
79671;BME280;69137;50.878;8.050;2023-05-14T01:47:28;98509.09;;;6.89;80.77
79671;BME280;69137;50.878;8.050;2023-05-14T01:49:54;98514.41;;;6.84;80.53
79671;BME280;69137;50.878;8.050;2023-05-14T01:52:19;98513.81;;;6.82;80.51
79671;BME280;69137;50.878;8.050;2023-05-14T01:54:46;98517.63;;;6.81;80.64
79671;BME280;69137;50.878;8.050;2023-05-14T01:57:12;98512.41;;;6.79;81.12
79671;BME280;69137;50.878;8.050;2023-05-14T01:59:37;98510.81;;;6.67;81.15
79671;BME280;69137;50.878;8.050;2023-05-14T02:02:02;98504.28;;;6.68;81.02
79671;BME280;69137;50.878;8.050;2023-05-14T02:04:28;98510.31;;;6.70;80.06
79671;BME280;69137;50.878;8.050;2023-05-14T02:06:53;98509.72;;;6.68;81.25
79671;BME280;69137;50.878;8.050;2023-05-14T02:09:19;98503.59;;;6.61;81.67
79671;BME280;69137;50.878;8.050;2023-05-14T02:11:44;98508.44;;;6.70;81.44
79671;BME280;69137;50.878;8.050;2023-05-14T02:14:10;98506.41;;;6.77;81.41
79671;BME280;69137;50.878;8.050;2023-05-14T02:16:35;98507.59;;;6.70;81.64
79671;BME280;69137;50.878;8.050;2023-05-14T02:19:01;98493.53;;;6.73;81.60
79671;BME280;69137;50.878;8.050;2023-05-14T02:21:26;98498.28;;;6.66;81.76
79671;BME280;69137;50.878;8.050;2023-05-14T02:23:52;98491.06;;;6.71;81.50
79671;BME280;69137;50.878;8.050;2023-05-14T02:26:17;98495.06;;;6.69;81.69
79671;BME280;69137;50.878;8.050;2023-05-14T02:28:42;98483.16;;;6.70;81.37
79671;BME280;69137;50.878;8.050;2023-05-14T02:31:08;98478.41;;;6.77;80.81
79671;BME280;69137;50.878;8.050;2023-05-14T02:33:36;98492.13;;;6.70;80.69
79671;BME280;69137;50.878;8.050;2023-05-14T02:36:02;98487.91;;;6.63;80.84
79671;BME280;69137;50.878;8.050;2023-05-14T02:38:27;98476.81;;;6.52;80.57
79671;BME280;69137;50.878;8.050;2023-05-14T02:40:53;98486.03;;;6.40;81.25
79671;BME280;69137;50.878;8.050;2023-05-14T02:43:18;98485.91;;;6.34;81.52
79671;BME280;69137;50.878;8.050;2023-05-14T02:45:43;98481.78;;;6.32;81.44
79671;BME280;69137;50.878;8.050;2023-05-14T02:48:09;98489.09;;;6.08;82.82
79671;BME280;69137;50.878;8.050;2023-05-14T02:50:34;98483.66;;;6.20;82.68
79671;BME280;69137;50.878;8.050;2023-05-14T02:53:00;98481.06;;;6.25;81.94
79671;BME280;69137;50.878;8.050;2023-05-14T02:55:26;98486.72;;;6.35;81.13
79671;BME280;69137;50.878;8.050;2023-05-14T02:57:51;98488.16;;;6.26;80.89
79671;BME280;69137;50.878;8.050;2023-05-14T03:00:17;98486.59;;;6.06;82.05
79671;BME280;69137;50.878;8.050;2023-05-14T03:02:43;98482.47;;;6.04;82.23
79671;BME280;69137;50.878;8.050;2023-05-14T03:05:08;98490.97;;;6.07;82.04
79671;BME280;69137;50.878;8.050;2023-05-14T03:07:34;98479.19;;;6.13;81.87
79671;BME280;69137;50.878;8.050;2023-05-14T03:09:59;98478.47;;;6.18;81.70
79671;BME280;69137;50.878;8.050;2023-05-14T03:12:25;98478.94;;;6.03;81.80
79671;BME280;69137;50.878;8.050;2023-05-14T03:14:51;98481.63;;;5.91;81.58
79671;BME280;69137;50.878;8.050;2023-05-14T03:17:16;98480.06;;;5.84;82.35
79671;BME280;69137;50.878;8.050;2023-05-14T03:19:42;98479.81;;;5.85;82.06
79671;BME280;69137;50.878;8.050;2023-05-14T03:22:07;98472.97;;;5.83;82.21
79671;BME280;69137;50.878;8.050;2023-05-14T03:24:33;98477.03;;;5.92;82.26
79671;BME280;69137;50.878;8.050;2023-05-14T03:26:59;98460.75;;;5.92;81.73
79671;BME280;69137;50.878;8.050;2023-05-14T03:29:24;98469.72;;;6.04;81.33
79671;BME280;69137;50.878;8.050;2023-05-14T03:31:50;98462.66;;;6.03;80.65
79671;BME280;69137;50.878;8.050;2023-05-14T03:34:15;98469.34;;;5.89;81.62
79671;BME280;69137;50.878;8.050;2023-05-14T03:36:41;98469.44;;;5.82;82.19
79671;BME280;69137;50.878;8.050;2023-05-14T03:39:06;98464.00;;;5.70;82.02
79671;BME280;69137;50.878;8.050;2023-05-14T03:41:33;98470.34;;;5.53;82.78
79671;BME280;69137;50.878;8.050;2023-05-14T03:44:00;98465.84;;;5.46;83.13
79671;BME280;69137;50.878;8.050;2023-05-14T03:46:25;98463.44;;;5.38;83.69
79671;BME280;69137;50.878;8.050;2023-05-14T03:48:50;98457.22;;;5.38;84.16
79671;BME280;69137;50.878;8.050;2023-05-14T03:51:16;98463.94;;;5.47;83.03
79671;BME280;69137;50.878;8.050;2023-05-14T03:53:41;98466.34;;;5.55;82.49
79671;BME280;69137;50.878;8.050;2023-05-14T03:56:07;98466.56;;;5.65;82.33
79671;BME280;69137;50.878;8.050;2023-05-14T03:58:32;98465.66;;;5.72;82.15
79671;BME280;69137;50.878;8.050;2023-05-14T04:00:57;98461.16;;;5.65;81.98
79671;BME280;69137;50.878;8.050;2023-05-14T04:03:24;98466.25;;;5.74;81.73
79671;BME280;69137;50.878;8.050;2023-05-14T04:05:50;98463.22;;;5.82;81.20
79671;BME280;69137;50.878;8.050;2023-05-14T04:08:15;98466.84;;;5.76;81.84
79671;BME280;69137;50.878;8.050;2023-05-14T04:10:41;98465.53;;;5.78;81.52
79671;BME280;69137;50.878;8.050;2023-05-14T04:13:07;98463.44;;;5.68;82.06
79671;BME280;69137;50.878;8.050;2023-05-14T04:15:32;98466.56;;;5.65;81.74
79671;BME280;69137;50.878;8.050;2023-05-14T04:17:59;98461.97;;;5.54;82.27
79671;BME280;69137;50.878;8.050;2023-05-14T04:20:25;98473.63;;;5.55;82.71
79671;BME280;69137;50.878;8.050;2023-05-14T04:22:51;98467.88;;;5.63;82.16
79671;BME280;69137;50.878;8.050;2023-05-14T04:25:16;98470.28;;;5.83;81.80
79671;BME280;69137;50.878;8.050;2023-05-14T04:27:42;98468.84;;;5.80;81.13
79671;BME280;69137;50.878;8.050;2023-05-14T04:30:08;98458.94;;;5.74;81.25
79671;BME280;69137;50.878;8.050;2023-05-14T04:32:34;98468.03;;;5.80;81.24
79671;BME280;69137;50.878;8.050;2023-05-14T04:34:59;98470.84;;;5.73;82.33
79671;BME280;69137;50.878;8.050;2023-05-14T04:37:25;98467.44;;;5.78;82.07
79671;BME280;69137;50.878;8.050;2023-05-14T04:39:50;98473.94;;;5.77;81.00
79671;BME280;69137;50.878;8.050;2023-05-14T04:42:16;98476.50;;;5.83;81.52
79671;BME280;69137;50.878;8.050;2023-05-14T04:44:41;98463.81;;;5.84;81.33
79671;BME280;69137;50.878;8.050;2023-05-14T04:47:06;98463.56;;;5.85;81.68
79671;BME280;69137;50.878;8.050;2023-05-14T04:49:32;98463.69;;;5.79;82.06
79671;BME280;69137;50.878;8.050;2023-05-14T04:51:57;98457.78;;;5.82;81.59
79671;BME280;69137;50.878;8.050;2023-05-14T04:54:23;98462.50;;;5.86;81.75
79671;BME280;69137;50.878;8.050;2023-05-14T04:56:49;98469.25;;;5.96;81.63
79671;BME280;69137;50.878;8.050;2023-05-14T04:59:14;98470.53;;;5.93;82.65
79671;BME280;69137;50.878;8.050;2023-05-14T05:01:40;98471.38;;;5.94;82.90
79671;BME280;69137;50.878;8.050;2023-05-14T05:04:06;98464.09;;;5.94;83.33
79671;BME280;69137;50.878;8.050;2023-05-14T05:06:31;98463.59;;;6.09;83.44
79671;BME280;69137;50.878;8.050;2023-05-14T05:08:57;98472.13;;;6.12;83.15
79671;BME280;69137;50.878;8.050;2023-05-14T05:11:22;98468.44;;;6.19;83.35
79671;BME280;69137;50.878;8.050;2023-05-14T05:13:48;98469.38;;;6.24;83.03
79671;BME280;69137;50.878;8.050;2023-05-14T05:16:13;98461.03;;;6.26;83.39
79671;BME280;69137;50.878;8.050;2023-05-14T05:18:39;98468.59;;;6.36;83.40
79671;BME280;69137;50.878;8.050;2023-05-14T05:21:05;98461.59;;;6.51;82.20
79671;BME280;69137;50.878;8.050;2023-05-14T05:23:31;98472.91;;;6.72;82.34
79671;BME280;69137;50.878;8.050;2023-05-14T05:25:56;98476.59;;;6.94;80.83
79671;BME280;69137;50.878;8.050;2023-05-14T05:28:21;98476.59;;;7.06;80.33
79671;BME280;69137;50.878;8.050;2023-05-14T05:30:47;98473.00;;;7.17;79.71
79671;BME280;69137;50.878;8.050;2023-05-14T05:33:13;98475.56;;;7.24;79.69
79671;BME280;69137;50.878;8.050;2023-05-14T05:35:38;98470.59;;;7.21;80.75
79671;BME280;69137;50.878;8.050;2023-05-14T05:38:03;98476.00;;;7.33;80.75
79671;BME280;69137;50.878;8.050;2023-05-14T05:40:29;98470.94;;;7.53;79.93
79671;BME280;69137;50.878;8.050;2023-05-14T05:42:54;98468.31;;;7.75;80.22
79671;BME280;69137;50.878;8.050;2023-05-14T05:45:20;98470.81;;;7.94;80.40
79671;BME280;69137;50.878;8.050;2023-05-14T05:47:46;98471.72;;;8.16;80.10
79671;BME280;69137;50.878;8.050;2023-05-14T05:50:12;98463.63;;;8.38;79.24
79671;BME280;69137;50.878;8.050;2023-05-14T05:52:39;98470.00;;;8.66;79.38
79671;BME280;69137;50.878;8.050;2023-05-14T05:55:05;98473.00;;;8.86;78.10
79671;BME280;69137;50.878;8.050;2023-05-14T05:57:30;98472.38;;;9.01;77.70
79671;BME280;69137;50.878;8.050;2023-05-14T05:59:56;98475.53;;;9.15;77.70
79671;BME280;69137;50.878;8.050;2023-05-14T06:02:22;98471.53;;;9.23;78.84
79671;BME280;69137;50.878;8.050;2023-05-14T06:04:49;98477.56;;;9.52;76.27
79671;BME280;69137;50.878;8.050;2023-05-14T06:07:14;98469.06;;;9.75;76.03
79671;BME280;69137;50.878;8.050;2023-05-14T06:09:39;98476.63;;;9.95;74.08
79671;BME280;69137;50.878;8.050;2023-05-14T06:12:05;98478.69;;;10.15;73.45
79671;BME280;69137;50.878;8.050;2023-05-14T06:14:31;98470.09;;;10.28;73.75
79671;BME280;69137;50.878;8.050;2023-05-14T06:16:56;98471.28;;;10.43;72.27
79671;BME280;69137;50.878;8.050;2023-05-14T06:19:22;98471.66;;;10.57;71.50
79671;BME280;69137;50.878;8.050;2023-05-14T06:21:48;98470.84;;;10.56;72.85
79671;BME280;69137;50.878;8.050;2023-05-14T06:24:13;98473.63;;;10.66;73.09
79671;BME280;69137;50.878;8.050;2023-05-14T06:26:40;98477.22;;;10.77;71.45
79671;BME280;69137;50.878;8.050;2023-05-14T06:29:06;98477.59;;;10.96;72.38
79671;BME280;69137;50.878;8.050;2023-05-14T06:31:31;98478.47;;;11.12;72.64
79671;BME280;69137;50.878;8.050;2023-05-14T06:33:56;98478.81;;;11.31;71.99
79671;BME280;69137;50.878;8.050;2023-05-14T06:36:22;98483.53;;;11.51;71.32
79671;BME280;69137;50.878;8.050;2023-05-14T06:38:47;98476.72;;;11.79;71.16
79671;BME280;69137;50.878;8.050;2023-05-14T06:41:13;98467.75;;;11.99;72.67
79671;BME280;69137;50.878;8.050;2023-05-14T06:43:38;98465.81;;;12.30;69.38
79671;BME280;69137;50.878;8.050;2023-05-14T06:46:03;98465.78;;;12.56;66.98
79671;BME280;69137;50.878;8.050;2023-05-14T06:48:29;98463.53;;;12.68;67.72
79671;BME280;69137;50.878;8.050;2023-05-14T06:50:55;98460.19;;;12.92;66.89
79671;BME280;69137;50.878;8.050;2023-05-14T06:53:20;98465.34;;;13.08;66.47
79671;BME280;69137;50.878;8.050;2023-05-14T06:55:46;98466.09;;;13.29;65.58
79671;BME280;69137;50.878;8.050;2023-05-14T06:58:12;98458.31;;;13.52;64.01
79671;BME280;69137;50.878;8.050;2023-05-14T07:00:37;98469.13;;;13.77;65.14
79671;BME280;69137;50.878;8.050;2023-05-14T07:03:04;98461.38;;;14.19;63.49
79671;BME280;69137;50.878;8.050;2023-05-14T07:05:30;98467.69;;;14.54;62.20
79671;BME280;69137;50.878;8.050;2023-05-14T07:07:55;98465.69;;;14.59;61.42
79671;BME280;69137;50.878;8.050;2023-05-14T07:10:21;98468.41;;;14.64;62.00
79671;BME280;69137;50.878;8.050;2023-05-14T07:12:48;98471.78;;;14.80;61.37
79671;BME280;69137;50.878;8.050;2023-05-14T07:15:13;98470.53;;;14.97;60.78
79671;BME280;69137;50.878;8.050;2023-05-14T07:17:39;98472.09;;;14.79;66.76
79671;BME280;69137;50.878;8.050;2023-05-14T07:20:05;98464.63;;;15.27;60.21
79671;BME280;69137;50.878;8.050;2023-05-14T07:22:31;98461.19;;;15.60;58.93
79671;BME280;69137;50.878;8.050;2023-05-14T07:24:56;98460.16;;;15.75;58.12
79671;BME280;69137;50.878;8.050;2023-05-14T07:27:22;98446.38;;;15.93;57.93
79671;BME280;69137;50.878;8.050;2023-05-14T07:29:48;98450.00;;;16.08;58.59
79671;BME280;69137;50.878;8.050;2023-05-14T07:32:14;98442.09;;;16.34;56.73
79671;BME280;69137;50.878;8.050;2023-05-14T07:34:39;98441.63;;;16.32;57.53
79671;BME280;69137;50.878;8.050;2023-05-14T07:37:05;98442.63;;;16.36;57.10
79671;BME280;69137;50.878;8.050;2023-05-14T07:39:30;98445.19;;;16.32;57.79
79671;BME280;69137;50.878;8.050;2023-05-14T07:41:56;98441.03;;;16.63;55.51
79671;BME280;69137;50.878;8.050;2023-05-14T07:44:21;98437.81;;;16.88;54.19
79671;BME280;69137;50.878;8.050;2023-05-14T07:46:46;98442.94;;;16.81;54.40
79671;BME280;69137;50.878;8.050;2023-05-14T07:49:15;98447.63;;;16.80;53.66
79671;BME280;69137;50.878;8.050;2023-05-14T07:51:40;98447.13;;;16.78;54.04
79671;BME280;69137;50.878;8.050;2023-05-14T07:54:06;98440.25;;;16.76;54.65
79671;BME280;69137;50.878;8.050;2023-05-14T07:56:31;98428.81;;;17.10;52.21
79671;BME280;69137;50.878;8.050;2023-05-14T07:58:57;98436.09;;;16.92;52.10
79671;BME280;69137;50.878;8.050;2023-05-14T08:01:22;98428.94;;;16.77;52.93
79671;BME280;69137;50.878;8.050;2023-05-14T08:03:48;98430.47;;;16.84;53.60
79671;BME280;69137;50.878;8.050;2023-05-14T08:06:13;98433.84;;;17.08;53.67
79671;BME280;69137;50.878;8.050;2023-05-14T08:08:39;98431.22;;;17.39;51.63
79671;BME280;69137;50.878;8.050;2023-05-14T08:11:04;98429.72;;;17.69;50.54
79671;BME280;69137;50.878;8.050;2023-05-14T08:13:30;98438.38;;;17.54;51.13
79671;BME280;69137;50.878;8.050;2023-05-14T08:15:56;98431.31;;;17.48;50.95
79671;BME280;69137;50.878;8.050;2023-05-14T08:18:21;98434.59;;;17.50;52.79
79671;BME280;69137;50.878;8.050;2023-05-14T08:20:47;98434.88;;;17.62;51.64
79671;BME280;69137;50.878;8.050;2023-05-14T08:23:12;98438.50;;;17.72;51.76
79671;BME280;69137;50.878;8.050;2023-05-14T08:25:38;98436.81;;;17.98;50.31
79671;BME280;69137;50.878;8.050;2023-05-14T08:28:03;98430.94;;;17.77;51.05
79671;BME280;69137;50.878;8.050;2023-05-14T08:30:29;98431.97;;;17.81;49.59
79671;BME280;69137;50.878;8.050;2023-05-14T08:32:54;98438.75;;;17.61;50.48
79671;BME280;69137;50.878;8.050;2023-05-14T08:35:20;98431.31;;;17.48;51.40
79671;BME280;69137;50.878;8.050;2023-05-14T08:37:45;98426.34;;;17.22;52.98
79671;BME280;69137;50.878;8.050;2023-05-14T08:40:11;98423.97;;;17.30;53.21
79671;BME280;69137;50.878;8.050;2023-05-14T08:42:39;98424.56;;;17.90;50.02
79671;BME280;69137;50.878;8.050;2023-05-14T08:45:19;98424.25;;;18.15;47.02
79671;BME280;69137;50.878;8.050;2023-05-14T08:47:49;98419.84;;;17.55;48.94
79671;BME280;69137;50.878;8.050;2023-05-14T08:50:16;98424.25;;;16.92;50.78
79671;BME280;69137;50.878;8.050;2023-05-14T08:52:41;98420.16;;;16.89;50.58
79671;BME280;69137;50.878;8.050;2023-05-14T08:55:08;98421.47;;;16.92;50.15
79671;BME280;69137;50.878;8.050;2023-05-14T08:57:34;98417.34;;;16.75;50.63
79671;BME280;69137;50.878;8.050;2023-05-14T09:00:02;98423.22;;;16.88;52.45
79671;BME280;69137;50.878;8.050;2023-05-14T09:02:39;98420.13;;;17.31;50.02
79671;BME280;69137;50.878;8.050;2023-05-14T09:05:05;98417.34;;;17.31;48.78
79671;BME280;69137;50.878;8.050;2023-05-14T09:07:32;98413.28;;;17.00;49.33
79671;BME280;69137;50.878;8.050;2023-05-14T09:09:58;98411.47;;;16.82;50.02
79671;BME280;69137;50.878;8.050;2023-05-14T09:12:24;98410.31;;;16.83;51.73
79671;BME280;69137;50.878;8.050;2023-05-14T09:14:50;98409.41;;;16.88;51.82
79671;BME280;69137;50.878;8.050;2023-05-14T09:17:16;98410.63;;;17.09;51.84
79671;BME280;69137;50.878;8.050;2023-05-14T09:19:43;98412.47;;;17.00;51.28
79671;BME280;69137;50.878;8.050;2023-05-14T09:22:13;98409.16;;;16.70;49.91
79671;BME280;69137;50.878;8.050;2023-05-14T09:24:39;98396.31;;;16.66;52.24
79671;BME280;69137;50.878;8.050;2023-05-14T09:27:05;98396.13;;;16.76;50.16
79671;BME280;69137;50.878;8.050;2023-05-14T09:29:31;98397.56;;;16.87;50.56
79671;BME280;69137;50.878;8.050;2023-05-14T09:31:58;98393.16;;;17.00;48.58
79671;BME280;69137;50.878;8.050;2023-05-14T09:34:27;98395.31;;;17.03;49.46
79671;BME280;69137;50.878;8.050;2023-05-14T09:37:03;98399.75;;;17.27;51.16
79671;BME280;69137;50.878;8.050;2023-05-14T09:39:30;98395.75;;;17.69;52.01
79671;BME280;69137;50.878;8.050;2023-05-14T09:41:56;98393.91;;;18.01;47.02
79671;BME280;69137;50.878;8.050;2023-05-14T09:44:22;98392.25;;;18.00;46.56
79671;BME280;69137;50.878;8.050;2023-05-14T09:46:48;98391.06;;;18.46;47.82
79671;BME280;69137;50.878;8.050;2023-05-14T09:49:14;98379.88;;;18.82;47.67
79671;BME280;69137;50.878;8.050;2023-05-14T09:51:40;98382.03;;;19.03;44.32
79671;BME280;69137;50.878;8.050;2023-05-14T09:54:06;98382.41;;;19.18;43.01
79671;BME280;69137;50.878;8.050;2023-05-14T09:56:32;98385.47;;;19.08;43.63
79671;BME280;69137;50.878;8.050;2023-05-14T09:58:58;98389.94;;;19.53;43.93
79671;BME280;69137;50.878;8.050;2023-05-14T10:01:24;98373.63;;;19.34;42.25
79671;BME280;69137;50.878;8.050;2023-05-14T10:03:51;98373.78;;;19.29;42.27
79671;BME280;69137;50.878;8.050;2023-05-14T10:06:19;98365.28;;;19.16;42.97
79671;BME280;69137;50.878;8.050;2023-05-14T10:08:47;98369.94;;;18.81;44.72
79671;BME280;69137;50.878;8.050;2023-05-14T10:11:34;98364.56;;;18.85;45.67
79671;BME280;69137;50.878;8.050;2023-05-14T10:14:12;98359.41;;;19.01;44.73
79671;BME280;69137;50.878;8.050;2023-05-14T10:17:00;98366.34;;;18.81;43.51
79671;BME280;69137;50.878;8.050;2023-05-14T10:19:26;98366.56;;;18.62;42.18
79671;BME280;69137;50.878;8.050;2023-05-14T10:21:55;98359.94;;;18.31;42.70
79671;BME280;69137;50.878;8.050;2023-05-14T10:24:21;98366.06;;;18.20;42.69
79671;BME280;69137;50.878;8.050;2023-05-14T10:26:48;98364.50;;;18.05;42.27
79671;BME280;69137;50.878;8.050;2023-05-14T10:29:14;98357.47;;;18.21;44.05
79671;BME280;69137;50.878;8.050;2023-05-14T10:31:52;98349.25;;;18.79;43.31
79671;BME280;69137;50.878;8.050;2023-05-14T10:34:31;98357.22;;;18.80;42.50
79671;BME280;69137;50.878;8.050;2023-05-14T10:37:13;98352.94;;;18.74;44.52
79671;BME280;69137;50.878;8.050;2023-05-14T10:39:44;98346.81;;;18.46;41.72
79671;BME280;69137;50.878;8.050;2023-05-14T10:44:58;98344.50;;;18.08;44.91
79671;BME280;69137;50.878;8.050;2023-05-14T10:47:34;98350.16;;;18.03;43.79
79671;BME280;69137;50.878;8.050;2023-05-14T10:50:03;98346.00;;;17.83;46.10
79671;BME280;69137;50.878;8.050;2023-05-14T10:52:29;98339.41;;;17.93;47.38
79671;BME280;69137;50.878;8.050;2023-05-14T10:55:00;98336.13;;;17.90;46.51
79671;BME280;69137;50.878;8.050;2023-05-14T10:57:29;98340.69;;;17.73;45.29
79671;BME280;69137;50.878;8.050;2023-05-14T10:59:57;98336.78;;;17.87;43.46
79671;BME280;69137;50.878;8.050;2023-05-14T11:02:29;98327.44;;;18.06;43.74
79671;BME280;69137;50.878;8.050;2023-05-14T11:05:03;98327.25;;;18.33;43.00
79671;BME280;69137;50.878;8.050;2023-05-14T11:07:32;98330.81;;;18.65;46.66
79671;BME280;69137;50.878;8.050;2023-05-14T11:10:00;98322.13;;;19.07;44.18
79671;BME280;69137;50.878;8.050;2023-05-14T11:12:26;98322.78;;;19.21;43.65
79671;BME280;69137;50.878;8.050;2023-05-14T11:14:52;98309.28;;;18.62;42.36
79671;BME280;69137;50.878;8.050;2023-05-14T11:17:18;98313.78;;;18.49;43.08
79671;BME280;69137;50.878;8.050;2023-05-14T11:19:44;98307.88;;;18.73;44.09
79671;BME280;69137;50.878;8.050;2023-05-14T11:22:10;98312.09;;;18.71;41.42
79671;BME280;69137;50.878;8.050;2023-05-14T11:24:38;98309.44;;;18.57;41.85
79671;BME280;69137;50.878;8.050;2023-05-14T11:27:06;98306.13;;;18.38;41.20
79671;BME280;69137;50.878;8.050;2023-05-14T11:29:33;98301.75;;;18.45;42.20
79671;BME280;69137;50.878;8.050;2023-05-14T11:31:59;98303.44;;;18.72;42.56
79671;BME280;69137;50.878;8.050;2023-05-14T11:34:24;98292.47;;;18.81;42.11
79671;BME280;69137;50.878;8.050;2023-05-14T11:36:50;98284.31;;;18.76;41.58
79671;BME280;69137;50.878;8.050;2023-05-14T11:39:18;98281.72;;;18.97;41.24
79671;BME280;69137;50.878;8.050;2023-05-14T11:41:44;98276.69;;;19.51;39.81
79671;BME280;69137;50.878;8.050;2023-05-14T11:44:10;98283.84;;;19.43;39.35
79671;BME280;69137;50.878;8.050;2023-05-14T11:46:35;98281.88;;;19.09;39.96
79671;BME280;69137;50.878;8.050;2023-05-14T11:49:04;98274.25;;;19.15;37.75
79671;BME280;69137;50.878;8.050;2023-05-14T11:51:31;98279.78;;;19.24;38.99
79671;BME280;69137;50.878;8.050;2023-05-14T11:53:56;98284.00;;;19.30;37.80
79671;BME280;69137;50.878;8.050;2023-05-14T11:56:23;98282.72;;;19.18;37.51
79671;BME280;69137;50.878;8.050;2023-05-14T11:58:54;98278.16;;;19.05;37.66
79671;BME280;69137;50.878;8.050;2023-05-14T12:01:22;98273.25;;;19.37;38.04
79671;BME280;69137;50.878;8.050;2023-05-14T12:03:49;98263.31;;;19.27;38.04
79671;BME280;69137;50.878;8.050;2023-05-14T12:06:14;98264.09;;;19.71;36.87
79671;BME280;69137;50.878;8.050;2023-05-14T12:08:40;98255.13;;;19.83;38.17
79671;BME280;69137;50.878;8.050;2023-05-14T12:11:07;98264.88;;;19.98;37.40
79671;BME280;69137;50.878;8.050;2023-05-14T12:13:33;98254.94;;;20.35;37.06
79671;BME280;69137;50.878;8.050;2023-05-14T12:16:01;98257.72;;;20.65;36.51
79671;BME280;69137;50.878;8.050;2023-05-14T12:18:28;98247.13;;;20.88;35.09
79671;BME280;69137;50.878;8.050;2023-05-14T12:20:54;98253.91;;;20.99;34.98
79671;BME280;69137;50.878;8.050;2023-05-14T12:23:30;98249.69;;;21.14;35.45
79671;BME280;69137;50.878;8.050;2023-05-14T12:26:06;98244.13;;;20.72;35.06
79671;BME280;69137;50.878;8.050;2023-05-14T12:28:33;98246.66;;;20.26;36.95
79671;BME280;69137;50.878;8.050;2023-05-14T12:30:59;98237.56;;;20.17;36.90
79671;BME280;69137;50.878;8.050;2023-05-14T12:33:27;98228.41;;;20.46;34.90
79671;BME280;69137;50.878;8.050;2023-05-14T12:35:53;98229.97;;;20.35;36.02
79671;BME280;69137;50.878;8.050;2023-05-14T12:38:21;98223.53;;;20.14;36.22
79671;BME280;69137;50.878;8.050;2023-05-14T12:40:46;98224.31;;;20.23;36.49
79671;BME280;69137;50.878;8.050;2023-05-14T12:43:12;98224.22;;;20.40;36.35
79671;BME280;69137;50.878;8.050;2023-05-14T12:45:37;98224.91;;;20.28;35.36
79671;BME280;69137;50.878;8.050;2023-05-14T12:48:03;98216.91;;;19.97;38.06
79671;BME280;69137;50.878;8.050;2023-05-14T12:50:28;98206.66;;;19.98;35.91
79671;BME280;69137;50.878;8.050;2023-05-14T12:52:54;98212.03;;;20.33;36.00
79671;BME280;69137;50.878;8.050;2023-05-14T12:55:20;98212.22;;;20.27;37.87
79671;BME280;69137;50.878;8.050;2023-05-14T12:57:45;98200.69;;;20.17;39.05
79671;BME280;69137;50.878;8.050;2023-05-14T13:00:11;98212.47;;;20.14;37.94
79671;BME280;69137;50.878;8.050;2023-05-14T13:02:37;98205.91;;;19.80;37.68
79671;BME280;69137;50.878;8.050;2023-05-14T13:05:02;98209.22;;;19.47;36.17
79671;BME280;69137;50.878;8.050;2023-05-14T13:07:29;98199.25;;;19.72;37.00